秋田空港の過去48時間の天気

秋田空港 (Akita)

現在時刻: 10/24 17:18 JST (10/24 08:18 UTC) 以下の時間は現地時間です。

過去48時間のMETAR気象情報
時間 風向 風速(m/s) 視程 気温(℃) 湿度(%) 気圧(hPa) 天気現象
24 17:00 西南西 5 10km以上 10 76 1004 しゅう雨
24 16:00 西北西 8 10km以上 11 67 1003 弱いしゅう雨
24 15:00 西北西 7 10km以上 11 71 1003 弱いしゅう雨
24 14:00 西 4 10km以上 12 67 1003 弱いしゅう雨
24 13:00 西 7 10km以上 12 71 1003
24 12:00 西北西 8 8000m 12 77 1004 弱いしゅう雨
24 11:00 西 7 7000m 9 87 1005 弱いしゅう雨
24 10:00 西 8 10km以上 12 54 1005 周辺でしゅう雨
24 09:00 西北西 9 10km以上 12 54 1005
24 08:00 西北西 9 10km以上 10 82 1005 弱いしゅう雨
24 07:00 西北西 7 8000m 9 93 1005 弱いしゅう雨
24 06:40 西北西 10 5000m 10 87 1005 弱いしゅう雨
23 21:00 北北西 2 10km以上 13 94 1001
23 20:00 西北西 7 7000m 14 88 1001 しゅう雨
23 19:50 2 3000m 13 100 1000 強いしゅう雨 もや
23 19:00 北西 3 10km以上 14 94 1001
23 18:20 北西 3 10km以上 14 94 1000 弱いしゅう雨
23 18:00 北西 3 8000m 14 94 1000 弱いしゅう雨
23 17:41 西北西 6 5000m 14 94 1000 しゅう雨 もや
23 17:27 不定 2 2000m 14 100 1000 強いしゅう雨 もや
23 17:00 不定 1 2000m 14 100 1000 弱いしゅう雨 散在した霧 もや
23 16:00 北西 3 7000m 15 94 1000 弱いしゅう雨
23 15:00 西北西 4 8000m 15 94 1001 弱いしゅう雨
23 14:33 西 6 7000m 15 94 1000 弱いしゅう雨
23 14:23 西 6 3000m 15 94 1000 しゅう雨 もや
23 14:00 西南西 3 7000m 16 94 999 弱いしゅう雨
23 13:20 西 5 6000m 16 94 999 弱いしゅう雨
23 13:10 西 6 3000m 16 94 999 しゅう雨 もや
23 13:00 西北西 7 2500m 16 94 999 強いしゅう雨 もや
23 12:48 南南東 3 3000m 16 94 998 弱いしゅう雨 もや
23 12:00 南東 2 8000m 16 94 999 弱いしゅう雨
23 11:00 東南東 3 10km以上 16 94 1001 弱いしゅう雨
23 10:00 南東 3 8000m 15 100 1001 弱いしゅう雨 部分霧
23 09:00 南東 3 8000m 15 100 1001 弱いしゅう雨 部分霧
23 08:00 南東 3 10km以上 15 94 1003 弱いしゅう雨
23 07:00 東南東 4 10km以上 15 94 1003 弱い雨
23 06:40 東南東 4 10km以上 15 94 1003 弱い雨
22 21:00 南東 4 10km以上 15 77 1013 弱い雨
22 20:00 南東 3 10km以上 16 72 1013
22 19:00 不定 1 10km以上 16 72 1013
22 18:00 南東 4 10km以上 16 72 1013
RJSK 240800Z 25009KT 220V280 9999 SHRA FEW005 SCT030 BKN040 10/06 Q1004
RJSK 240700Z 29016KT 9999 -SHRA FEW005 BKN040 BKN050 11/05 Q1003
RJSK 240600Z 29013KT 9999 -SHRA FEW010 BKN040 BKN050 11/06 Q1003
RJSK 240500Z 26008KT 210V300 9999 -SHRA FEW010 SCT035 BKN050 12/06 Q1003
RJSK 240400Z 27013KT 220V290 9999 FEW008 SCT035 BKN060 12/07 Q1003
RJSK 240300Z 29015KT 8000 -SHRA FEW008 SCT050 12/08 Q1004
RJSK 240200Z 26014G24KT 220V290 7000 -SHRA FEW015 SCT030 BKN040 09/07 Q1005
RJSK 240100Z 28016KT 240V310 9999 VCSH FEW015 BKN040 BKN070 12/03 Q1005
RJSK 240000Z 29018KT 9999 FEW015 SCT035 BKN080 12/03 Q1005
RJSK 232300Z 29018KT 9999 -SHRA FEW005 SCT020 BKN040 10/07 Q1005
RJSK 232200Z 29014KT 8000 -SHRA FEW005 SCT015 BKN025 09/08 Q1005
RJSK 232140Z 29019KT 5000 -SHRA FEW005 SCT020 BKN035 10/08 Q1005 RMK 1ST005 4CU020 6CU035 A2970
RJSK 231200Z 33004KT 290V020 9999 FEW001 SCT025 BKN040 13/12 Q1001
RJSK 231100Z 29014KT 260V330 7000 R28/2000N SHRA FEW001 SCT015 BKN020 14/12 Q1001
RJSK 231050Z 19003KT 130V260 3000 R28/2000N +SHRA BR FEW001 SCT020 BKN025 13/13 Q1000 RMK 1ST001 3CU020 5CU025 A2956 RI++
RJSK 231000Z 32005KT 9999 FEW001 SCT020 BKN030 14/13 Q1001
RJSK 230920Z 31006KT 9999 -SHRA FEW001 SCT006 BKN020 14/13 Q1000 RMK 1ST001 3ST006 5CU020 A2956
RJSK 230900Z 31005KT 8000 -SHRA FEW001 SCT020 BKN025 14/13 Q1000
RJSK 230841Z 30012KT 5000 SHRA BR FEW001 SCT007 BKN015 14/13 Q1000 RMK 1ST001 3ST007 5CU015 A2956
RJSK 230827Z VRB03KT 2000 R28/2000N +SHRA BR FEW001 BKN007 BKN015 14/14 Q1000 RMK 1ST001 5ST007 6CU015 A2955
RJSK 230800Z VRB01KT 2000 R28/P2000N -SHRA BCFG BR FEW000 SCT025 BKN030 14/14 Q1000
RJSK 230700Z 31005KT 7000 -SHRA FEW001 SCT015 BKN025 15/14 Q1000
RJSK 230600Z 29008KT 8000 -SHRA FEW001 SCT015 BKN025 15/14 Q1001
RJSK 230533Z 28012KT 7000 -SHRA FEW001 SCT015 BKN020 15/14 Q1000 RMK 1ST001 3CU015 5CU020 A2955
RJSK 230523Z 27012KT 3000 SHRA BR FEW001 SCT010 BKN015 15/14 Q1000 RMK 1ST001 3ST010 6CU015 A2955
RJSK 230500Z 25006KT 210V280 7000 -SHRA FEW001 SCT012 BKN015 16/15 Q0999
RJSK 230420Z 26010KT 220V290 6000 -SHRA FEW003 SCT008 BKN012 16/15 Q0999 RMK 1ST003 4ST008 6ST012 A2952
RJSK 230410Z 26012KT 3000 SHRA BR FEW002 BKN004 BKN010 16/15 Q0999 RMK 1ST002 5ST004 6ST010 A2952
RJSK 230400Z 29013KT 2500 +SHRA BR FEW001 BKN002 BKN006 16/15 Q0999
RJSK 230348Z 15005KT 110V190 3000 -SHRA BR FEW001 BKN003 BKN008 16/15 Q0998 RMK 1ST001 5ST003 6ST008 A2950
RJSK 230300Z 14004KT 100V170 8000 -SHRA FEW002 BKN020 BKN030 16/15 Q0999
RJSK 230200Z 12006KT 9999 -SHRA FEW002 SCT030 BKN040 16/15 Q1001
RJSK 230100Z 13005KT 8000 R28/P2000N -SHRA PRFG FEW000 SCT002 BKN045 15/15 Q1001
RJSK 230000Z 13006KT 8000 R28/P2000N -SHRA PRFG FEW000 SCT050 BKN080 15/15 Q1001
RJSK 222300Z 13005KT 9999 -SHRA FEW001 SCT050 BKN080 15/14 Q1003
RJSK 222200Z 12007KT 9999 -RA FEW010 SCT060 BKN100 15/14 Q1003
RJSK 222140Z 12007KT 9999 -RA FEW010 SCT060 BKN100 15/14 Q1003 RMK 1ST010 4SC060 6AC100 A2963
RJSK 221200Z 13007KT 9999 -RA FEW050 BKN090 BKN120 15/11 Q1013
RJSK 221100Z 14006KT CAVOK 16/11 Q1013
RJSK 221000Z VRB02KT CAVOK 16/11 Q1013
RJSK 220900Z 13007KT CAVOK 16/11 Q1013